PWSweather.com
Personal Weather Stations
Station Observations
IHTIMAN1
Neighbourhood 1, IhtimanBG 2050

Neighbourhood 1IhtimanBG 2050

Lat: 42.436852, Lon: 23.817921

Elevation: 2066

Station Type: Oregon Scientific WMR968

http://ihtiman-meteo.com

High Low Average
Temperature 72.5°F22.5°C 50.2°F10.1°C 60.0°F15.6°C
Dew Point 51.3°F10.7°C 45.2°F7.3°C 48.1°F8.9°C
Winds 9.2 mph 14.8 kmh Calm Calm 4.0 mph WSW6.4 kmh WSW
Wind Gusts 16.1 mph25.9 kmh -- 6.0 mph9.7 kmh
Humidity 92% 43% 67%
Pressure 30.00 in1015.9 mb 29.86 in1011.2 mb -
Precipitation 0.00 in0.0 mm - -
Hour Temp Dew Point Humidity Winds Wind Gusts Pressure Precip Precip Rate Daily Precip Total
12:00 AM 52.7°F11.5°C 47.7°F8.7°C 83% 2.3 mph N3.7 kmh N 4.6 mph7.4 kmh 29.86 in1011.2 mb - 0.00 in0.0 mm 0.00 in0.0 mm
12:10 AM 52.2°F11.2°C 47.2°F8.4°C 83% Calm Calm -- 29.86 in1011.2 mb - 0.00 in0.0 mm 0.00 in0.0 mm
12:20 AM 51.6°F10.9°C 46.9°F8.3°C 84% Calm Calm 3.5 mph5.6 kmh 29.86 in1011.2 mb - 0.00 in0.0 mm 0.00 in0.0 mm
12:30 AM 51.2°F10.7°C 46.5°F8.1°C 84% Calm Calm -- 29.86 in1011.2 mb - 0.00 in0.0 mm 0.00 in0.0 mm
12:40 AM 50.6°F10.3°C 46.0°F7.8°C 84% Calm Calm -- 29.86 in1011.2 mb - 0.00 in0.0 mm 0.00 in0.0 mm
12:50 AM 50.3°F10.2°C 46.0°F7.8°C 85% 2.3 mph N3.7 kmh N 2.3 mph3.7 kmh 29.86 in1011.2 mb - 0.00 in0.0 mm 0.00 in0.0 mm
01:00 AM 50.2°F10.1°C 46.2°F7.9°C 86% Calm Calm 3.5 mph5.6 kmh 29.86 in1011.2 mb - 0.00 in0.0 mm 0.00 in0.0 mm
01:10 AM 50.4°F10.2°C 46.9°F8.3°C 88% 3.5 mph N5.6 kmh N 3.5 mph5.6 kmh 29.86 in1011.2 mb - 0.00 in0.0 mm 0.00 in0.0 mm
01:20 AM 50.6°F10.3°C 47.8°F8.8°C 90% Calm Calm 5.8 mph9.3 kmh 29.86 in1011.2 mb - 0.00 in0.0 mm 0.00 in0.0 mm
01:30 AM 50.9°F10.5°C 48.4°F9.1°C 91% 2.3 mph N3.7 kmh N 5.8 mph9.3 kmh 29.86 in1011.2 mb - 0.00 in0.0 mm 0.00 in0.0 mm
01:40 AM 51.3°F10.7°C 49.0°F9.4°C 92% 3.5 mph N5.6 kmh N 3.5 mph5.6 kmh 29.86 in1011.2 mb - 0.00 in0.0 mm 0.00 in0.0 mm
01:50 AM 51.6°F10.9°C 49.4°F9.7°C 92% 3.5 mph N5.6 kmh N 3.5 mph5.6 kmh 29.86 in1011.2 mb - 0.00 in0.0 mm 0.00 in0.0 mm
02:00 AM 51.8°F11.0°C 49.3°F9.6°C 91% 4.6 mph N7.4 kmh N 5.8 mph9.3 kmh 29.86 in1011.2 mb - 0.00 in0.0 mm 0.00 in0.0 mm
02:10 AM 52.2°F11.2°C 49.3°F9.6°C 90% 4.6 mph N7.4 kmh N 5.8 mph9.3 kmh 29.86 in1011.2 mb - 0.00 in0.0 mm 0.00 in0.0 mm
02:20 AM 52.3°F11.3°C 49.2°F9.6°C 89% 4.6 mph N7.4 kmh N 5.8 mph9.3 kmh 29.86 in1011.2 mb - 0.00 in0.0 mm 0.00 in0.0 mm
02:30 AM 52.6°F11.4°C 48.9°F9.4°C 87% 4.6 mph N7.4 kmh N 5.8 mph9.3 kmh 29.86 in1011.2 mb - 0.00 in0.0 mm 0.00 in0.0 mm
02:40 AM 52.9°F11.6°C 48.8°F9.3°C 86% 3.5 mph N5.6 kmh N 8.1 mph13.0 kmh 29.86 in1011.2 mb - 0.00 in0.0 mm 0.00 in0.0 mm
02:50 AM 53.1°F11.7°C 48.7°F9.3°C 85% 4.6 mph N7.4 kmh N 5.8 mph9.3 kmh 29.86 in1011.2 mb - 0.00 in0.0 mm 0.00 in0.0 mm
03:00 AM 53.1°F11.7°C 48.4°F9.1°C 84% 3.5 mph N5.6 kmh N 4.6 mph7.4 kmh 29.86 in1011.2 mb - 0.00 in0.0 mm 0.00 in0.0 mm
03:10 AM 53.1°F11.7°C 48.4°F9.1°C 84% 3.5 mph NNW5.6 kmh NNW 5.8 mph9.3 kmh 29.86 in1011.2 mb - 0.00 in0.0 mm 0.00 in0.0 mm
03:20 AM 53.0°F11.7°C 48.0°F8.9°C 83% 2.3 mph WNW3.7 kmh WNW 3.5 mph5.6 kmh 29.86 in1011.2 mb - 0.00 in0.0 mm 0.00 in0.0 mm
03:30 AM 52.8°F11.6°C 48.1°F8.9°C 84% 3.5 mph N5.6 kmh N 5.8 mph9.3 kmh 29.86 in1011.2 mb - 0.00 in0.0 mm 0.00 in0.0 mm
03:40 AM 52.7°F11.5°C 48.0°F8.9°C 84% 4.6 mph N7.4 kmh N 8.1 mph13.0 kmh 29.86 in1011.2 mb - 0.00 in0.0 mm 0.00 in0.0 mm
03:50 AM 52.9°F11.6°C 48.5°F9.2°C 85% 3.5 mph N5.6 kmh N 3.5 mph5.6 kmh 29.86 in1011.2 mb - 0.00 in0.0 mm 0.00 in0.0 mm
04:00 AM 52.9°F11.6°C 48.5°F9.2°C 85% 3.5 mph N5.6 kmh N 5.8 mph9.3 kmh 29.86 in1011.2 mb - 0.00 in0.0 mm 0.00 in0.0 mm
04:10 AM 52.9°F11.6°C 48.5°F9.2°C 85% 2.3 mph N3.7 kmh N 5.8 mph9.3 kmh 29.86 in1011.2 mb - 0.00 in0.0 mm 0.00 in0.0 mm
04:20 AM 52.9°F11.6°C 48.5°F9.2°C 85% Calm Calm 2.3 mph3.7 kmh 29.86 in1011.2 mb - 0.00 in0.0 mm 0.00 in0.0 mm
04:30 AM 52.7°F11.5°C 48.3°F9.1°C 85% 2.3 mph N3.7 kmh N 3.5 mph5.6 kmh 29.86 in1011.2 mb - 0.00 in0.0 mm 0.00 in0.0 mm
04:40 AM 52.7°F11.5°C 48.3°F9.1°C 85% 2.3 mph N3.7 kmh N 3.5 mph5.6 kmh 29.86 in1011.2 mb - 0.00 in0.0 mm 0.00 in0.0 mm
04:50 AM 52.7°F11.5°C 48.6°F9.2°C 86% 3.5 mph N5.6 kmh N 5.8 mph9.3 kmh 29.86 in1011.2 mb - 0.00 in0.0 mm 0.00 in0.0 mm
05:00 AM 52.9°F11.6°C 48.8°F9.3°C 86% 2.3 mph N3.7 kmh N 3.5 mph5.6 kmh 29.86 in1011.2 mb - 0.00 in0.0 mm 0.00 in0.0 mm
05:10 AM 53.1°F11.7°C 48.7°F9.3°C 85% 1.2 mph N1.9 kmh N 3.5 mph5.6 kmh 29.86 in1011.2 mb - 0.00 in0.0 mm 0.00 in0.0 mm
05:20 AM 53.1°F11.7°C 48.7°F9.3°C 85% 1.2 mph NNE1.9 kmh NNE 3.5 mph5.6 kmh 29.88 in1011.9 mb - 0.00 in0.0 mm 0.00 in0.0 mm
05:30 AM 53.4°F11.9°C 49.0°F9.4°C 85% Calm Calm 3.5 mph5.6 kmh 29.88 in1011.9 mb - 0.00 in0.0 mm 0.00 in0.0 mm
05:40 AM 53.2°F11.8°C 48.8°F9.3°C 85% 1.2 mph ESE1.9 kmh ESE 2.3 mph3.7 kmh 29.88 in1011.9 mb - 0.00 in0.0 mm 0.00 in0.0 mm
05:50 AM 53.1°F11.7°C 48.7°F9.3°C 85% Calm Calm -- 29.88 in1011.9 mb - 0.00 in0.0 mm 0.00 in0.0 mm
06:00 AM 53.1°F11.7°C 48.7°F9.3°C 85% 1.2 mph SSE1.9 kmh SSE 3.5 mph5.6 kmh 29.88 in1011.9 mb - 0.00 in0.0 mm 0.00 in0.0 mm
06:10 AM 53.2°F11.8°C 49.2°F9.6°C 86% Calm Calm -- 29.88 in1011.9 mb - 0.00 in0.0 mm 0.00 in0.0 mm
06:20 AM 53.6°F12.0°C 49.8°F9.9°C 87% Calm Calm 3.5 mph5.6 kmh 29.88 in1011.9 mb - 0.00 in0.0 mm 0.00 in0.0 mm
06:30 AM 53.9°F12.2°C 50.4°F10.2°C 88% Calm Calm -- 29.86 in1011.2 mb - 0.00 in0.0 mm 0.00 in0.0 mm
06:40 AM 54.4°F12.4°C 50.9°F10.5°C 88% Calm Calm -- 29.86 in1011.2 mb - 0.00 in0.0 mm 0.00 in0.0 mm
06:50 AM 55.0°F12.8°C 51.2°F10.7°C 87% Calm Calm -- 29.88 in1011.9 mb - 0.00 in0.0 mm 0.00 in0.0 mm
07:00 AM 55.8°F13.2°C 51.3°F10.7°C 85% 3.5 mph N5.6 kmh N 4.6 mph7.4 kmh 29.88 in1011.9 mb - 0.00 in0.0 mm 0.00 in0.0 mm
07:10 AM 56.8°F13.8°C 51.1°F10.6°C 81% 1.2 mph N1.9 kmh N 3.5 mph5.6 kmh 29.88 in1011.9 mb - 0.00 in0.0 mm 0.00 in0.0 mm
07:20 AM 57.9°F14.4°C 50.7°F10.4°C 77% 3.5 mph N5.6 kmh N 5.8 mph9.3 kmh 29.88 in1011.9 mb - 0.00 in0.0 mm 0.00 in0.0 mm
07:30 AM 59.3°F15.2°C 50.6°F10.3°C 73% 3.5 mph N5.6 kmh N 5.8 mph9.3 kmh 29.88 in1011.9 mb - 0.00 in0.0 mm 0.00 in0.0 mm
07:40 AM 61.1°F16.2°C 51.2°F10.7°C 70% 2.3 mph NW3.7 kmh NW 5.8 mph9.3 kmh 29.88 in1011.9 mb - 0.00 in0.0 mm 0.00 in0.0 mm
07:50 AM 62.0°F16.7°C 51.3°F10.7°C 68% 3.5 mph NNW5.6 kmh NNW 5.8 mph9.3 kmh 29.88 in1011.9 mb - 0.00 in0.0 mm 0.00 in0.0 mm
08:00 AM 62.6°F17.0°C 51.1°F10.6°C 66% 5.8 mph NNW9.3 kmh NNW 8.1 mph13.0 kmh 29.88 in1011.9 mb - 0.00 in0.0 mm 0.00 in0.0 mm
08:10 AM 63.1°F17.3°C 50.8°F10.4°C 64% 4.6 mph N7.4 kmh N 5.8 mph9.3 kmh 29.88 in1011.9 mb - 0.00 in0.0 mm 0.00 in0.0 mm
08:30 AM 64.9°F18.3°C 51.2°F10.7°C 61% 5.8 mph N9.3 kmh N 8.1 mph13.0 kmh 29.88 in1011.9 mb - 0.00 in0.0 mm 0.00 in0.0 mm
08:40 AM 64.8°F18.2°C 50.6°F10.3°C 60% 5.8 mph N9.3 kmh N 8.1 mph13.0 kmh 29.88 in1011.9 mb - 0.00 in0.0 mm 0.00 in0.0 mm
08:50 AM 63.1°F17.3°C 49.0°F9.4°C 60% 6.9 mph NNW11.1 kmh NNW 12.7 mph20.4 kmh 29.88 in1011.9 mb - 0.00 in0.0 mm 0.00 in0.0 mm
09:00 AM 63.2°F17.3°C 50.0°F10.0°C 62% 4.6 mph N7.4 kmh N 5.8 mph9.3 kmh 29.88 in1011.9 mb - 0.00 in0.0 mm 0.00 in0.0 mm
09:10 AM 62.2°F16.8°C 48.6°F9.2°C 61% 4.6 mph NW7.4 kmh NW 6.9 mph11.1 kmh 29.88 in1011.9 mb - 0.00 in0.0 mm 0.00 in0.0 mm
09:20 AM 62.2°F16.8°C 48.6°F9.2°C 61% 4.6 mph NW7.4 kmh NW 9.2 mph14.8 kmh 29.88 in1011.9 mb - 0.00 in0.0 mm 0.00 in0.0 mm
09:30 AM 63.0°F17.2°C 49.3°F9.6°C 61% 6.9 mph NW11.1 kmh NW 10.4 mph16.7 kmh 29.88 in1011.9 mb - 0.00 in0.0 mm 0.00 in0.0 mm
09:40 AM 64.2°F17.9°C 49.5°F9.7°C 59% 9.2 mph NNW14.8 kmh NNW 12.7 mph20.4 kmh 29.88 in1011.9 mb - 0.00 in0.0 mm 0.00 in0.0 mm
09:50 AM 62.4°F16.9°C 48.8°F9.3°C 61% 9.2 mph N14.8 kmh N 12.7 mph20.4 kmh 29.91 in1012.9 mb - 0.00 in0.0 mm 0.00 in0.0 mm
10:00 AM 64.8°F18.2°C 50.6°F10.3°C 60% 9.2 mph N14.8 kmh N 9.2 mph14.8 kmh 29.91 in1012.9 mb - 0.00 in0.0 mm 0.00 in0.0 mm
10:10 AM 65.5°F18.6°C 51.3°F10.7°C 60% 5.8 mph NNW9.3 kmh NNW 10.4 mph16.7 kmh 29.91 in1012.9 mb - 0.00 in0.0 mm 0.00 in0.0 mm
10:20 AM 64.1°F17.8°C 49.4°F9.7°C 59% 4.6 mph NNW7.4 kmh NNW 9.2 mph14.8 kmh 29.91 in1012.9 mb - 0.00 in0.0 mm 0.00 in0.0 mm
10:30 AM 66.1°F18.9°C 50.9°F10.5°C 58% 6.9 mph NNW11.1 kmh NNW 12.7 mph20.4 kmh 29.91 in1012.9 mb - 0.00 in0.0 mm 0.00 in0.0 mm
10:40 AM 66.6°F19.2°C 48.4°F9.1°C 52% 8.1 mph NW13.0 kmh NW 10.4 mph16.7 kmh 29.91 in1012.9 mb - 0.00 in0.0 mm 0.00 in0.0 mm
10:50 AM 66.1°F18.9°C 48.4°F9.1°C 53% 8.1 mph NNW13.0 kmh NNW 13.8 mph22.2 kmh 29.91 in1012.9 mb - 0.00 in0.0 mm 0.00 in0.0 mm
11:00 AM 64.3°F17.9°C 47.8°F8.8°C 55% 5.8 mph N9.3 kmh N 9.2 mph14.8 kmh 29.91 in1012.9 mb - 0.00 in0.0 mm 0.00 in0.0 mm
11:10 AM 65.1°F18.4°C 48.6°F9.2°C 55% 6.9 mph NNW11.1 kmh NNW 11.5 mph18.5 kmh 29.91 in1012.9 mb - 0.00 in0.0 mm 0.00 in0.0 mm
11:21 AM 65.2°F18.4°C 48.1°F8.9°C 54% 8.1 mph N13.0 kmh N 10.4 mph16.7 kmh 29.91 in1012.9 mb - 0.00 in0.0 mm 0.00 in0.0 mm
11:30 AM 66.7°F19.3°C 48.5°F9.2°C 52% 5.8 mph NNW9.3 kmh NNW 9.2 mph14.8 kmh 29.91 in1012.9 mb - 0.00 in0.0 mm 0.00 in0.0 mm
11:40 AM 67.2°F19.6°C 49.0°F9.4°C 52% 6.9 mph N11.1 kmh N 10.4 mph16.7 kmh 29.91 in1012.9 mb - 0.00 in0.0 mm 0.00 in0.0 mm
12:00 PM 68.7°F20.4°C 48.7°F9.3°C 49% 9.2 mph NNW14.8 kmh NNW 13.8 mph22.2 kmh 29.91 in1012.9 mb - 0.00 in0.0 mm 0.00 in0.0 mm
12:20 PM 65.9°F18.8°C 47.8°F8.8°C 52% 4.6 mph N7.4 kmh N 10.4 mph16.7 kmh 29.91 in1012.9 mb - 0.00 in0.0 mm 0.00 in0.0 mm
12:40 PM 68.1°F20.1°C 48.2°F9.0°C 49% 9.2 mph NW14.8 kmh NW 10.4 mph16.7 kmh 29.91 in1012.9 mb - 0.00 in0.0 mm 0.00 in0.0 mm
12:50 PM 68.9°F20.5°C 49.5°F9.7°C 50% 6.9 mph W11.1 kmh W 12.7 mph20.4 kmh 29.91 in1012.9 mb - 0.00 in0.0 mm 0.00 in0.0 mm
01:00 PM 68.5°F20.3°C 48.6°F9.2°C 49% 6.9 mph NW11.1 kmh NW 9.2 mph14.8 kmh 29.91 in1012.9 mb - 0.00 in0.0 mm 0.00 in0.0 mm
01:10 PM 70.3°F21.3°C 50.2°F10.1°C 49% 6.9 mph NNW11.1 kmh NNW 9.2 mph14.8 kmh 29.91 in1012.9 mb - 0.00 in0.0 mm 0.00 in0.0 mm
01:20 PM 71.4°F21.9°C 50.1°F10.1°C 47% 6.9 mph NNW11.1 kmh NNW 9.2 mph14.8 kmh 29.91 in1012.9 mb - 0.00 in0.0 mm 0.00 in0.0 mm
01:30 PM 67.9°F19.9°C 46.3°F7.9°C 46% 8.1 mph NNW13.0 kmh NNW 13.8 mph22.2 kmh 29.91 in1012.9 mb - 0.00 in0.0 mm 0.00 in0.0 mm
01:40 PM 67.4°F19.7°C 45.9°F7.7°C 46% 8.1 mph NNW13.0 kmh NNW 11.5 mph18.5 kmh 29.91 in1012.9 mb - 0.00 in0.0 mm 0.00 in0.0 mm
01:50 PM 68.6°F20.3°C 47.0°F8.3°C 46% 6.9 mph NW11.1 kmh NW 10.4 mph16.7 kmh 29.91 in1012.9 mb - 0.00 in0.0 mm 0.00 in0.0 mm
02:01 PM 68.7°F20.4°C 47.1°F8.4°C 46% 5.8 mph NW9.3 kmh NW 8.1 mph13.0 kmh 29.91 in1012.9 mb - 0.00 in0.0 mm 0.00 in0.0 mm
02:10 PM 69.9°F21.1°C 48.8°F9.3°C 47% 5.8 mph WSW9.3 kmh WSW 10.4 mph16.7 kmh 29.91 in1012.9 mb - 0.00 in0.0 mm 0.00 in0.0 mm
02:20 PM 70.6°F21.4°C 48.8°F9.3°C 46% 5.8 mph W9.3 kmh W 8.1 mph13.0 kmh 29.91 in1012.9 mb - 0.00 in0.0 mm 0.00 in0.0 mm
02:30 PM 69.0°F20.6°C 47.9°F8.8°C 47% 6.9 mph W11.1 kmh W 10.4 mph16.7 kmh 29.91 in1012.9 mb - 0.00 in0.0 mm 0.00 in0.0 mm
02:40 PM 67.4°F19.7°C 47.6°F8.7°C 49% 6.9 mph NNW11.1 kmh NNW 13.8 mph22.2 kmh 29.91 in1012.9 mb - 0.00 in0.0 mm 0.00 in0.0 mm
02:50 PM 66.9°F19.4°C 47.6°F8.7°C 50% 3.5 mph NW5.6 kmh NW 5.8 mph9.3 kmh 29.91 in1012.9 mb - 0.00 in0.0 mm 0.00 in0.0 mm
03:00 PM 68.1°F20.1°C 48.7°F9.3°C 50% 4.6 mph W7.4 kmh W 8.1 mph13.0 kmh 29.91 in1012.9 mb - 0.00 in0.0 mm 0.00 in0.0 mm
03:10 PM 72.5°F22.5°C 49.3°F9.6°C 44% 6.9 mph NW11.1 kmh NW 10.4 mph16.7 kmh 29.91 in1012.9 mb - 0.00 in0.0 mm 0.00 in0.0 mm
03:30 PM 68.4°F20.2°C 46.2°F7.9°C 45% 6.9 mph NW11.1 kmh NW 9.2 mph14.8 kmh 29.91 in1012.9 mb - 0.00 in0.0 mm 0.00 in0.0 mm
03:40 PM 69.0°F20.6°C 47.3°F8.5°C 46% 6.9 mph NW11.1 kmh NW 10.4 mph16.7 kmh 29.91 in1012.9 mb - 0.00 in0.0 mm 0.00 in0.0 mm
03:50 PM 68.9°F20.5°C 47.3°F8.5°C 46% 6.9 mph NNW11.1 kmh NNW 11.5 mph18.5 kmh 29.91 in1012.9 mb - 0.00 in0.0 mm 0.00 in0.0 mm
04:20 PM 70.4°F21.3°C 46.8°F8.2°C 43% 9.2 mph NNW14.8 kmh NNW 11.5 mph18.5 kmh 29.91 in1012.9 mb - 0.00 in0.0 mm 0.00 in0.0 mm
04:30 PM 68.8°F20.4°C 45.4°F7.4°C 43% 9.2 mph NNW14.8 kmh NNW 12.7 mph20.4 kmh 29.91 in1012.9 mb - 0.00 in0.0 mm 0.00 in0.0 mm
04:40 PM 68.6°F20.3°C 45.2°F7.3°C 43% 8.1 mph NW13.0 kmh NW 15.0 mph24.1 kmh 29.91 in1012.9 mb - 0.00 in0.0 mm 0.00 in0.0 mm
04:50 PM 69.7°F20.9°C 46.8°F8.2°C 44% 8.1 mph NNW13.0 kmh NNW 16.1 mph25.9 kmh 29.91 in1012.9 mb - 0.00 in0.0 mm 0.00 in0.0 mm
05:00 PM 69.3°F20.7°C 47.1°F8.4°C 45% 8.1 mph NW13.0 kmh NW 9.2 mph14.8 kmh 29.91 in1012.9 mb - 0.00 in0.0 mm 0.00 in0.0 mm
05:10 PM 69.4°F20.8°C 47.1°F8.4°C 45% 9.2 mph NNW14.8 kmh NNW 12.7 mph20.4 kmh 29.91 in1012.9 mb - 0.00 in0.0 mm 0.00 in0.0 mm
05:20 PM 68.1°F20.1°C 46.0°F7.8°C 45% 5.8 mph NW9.3 kmh NW 10.4 mph16.7 kmh 29.91 in1012.9 mb - 0.00 in0.0 mm 0.00 in0.0 mm
05:30 PM 68.0°F20.0°C 46.4°F8.0°C 46% 6.9 mph NNW11.1 kmh NNW 8.1 mph13.0 kmh 29.91 in1012.9 mb - 0.00 in0.0 mm 0.00 in0.0 mm
06:10 PM 68.2°F20.1°C 46.1°F7.8°C 45% 5.8 mph NW9.3 kmh NW 11.5 mph18.5 kmh 29.91 in1012.9 mb - 0.00 in0.0 mm 0.00 in0.0 mm
06:20 PM 68.8°F20.4°C 46.6°F8.1°C 45% 5.8 mph NW9.3 kmh NW 10.4 mph16.7 kmh 29.91 in1012.9 mb - 0.00 in0.0 mm 0.00 in0.0 mm
06:30 PM 67.5°F19.7°C 46.0°F7.8°C 46% 4.6 mph NW7.4 kmh NW 8.1 mph13.0 kmh 29.91 in1012.9 mb - 0.00 in0.0 mm 0.00 in0.0 mm
06:41 PM 67.0°F19.4°C 45.5°F7.5°C 46% 4.6 mph NW7.4 kmh NW 8.1 mph13.0 kmh 29.91 in1012.9 mb - 0.00 in0.0 mm 0.00 in0.0 mm
06:50 PM 66.2°F19.0°C 45.9°F7.7°C 48% 4.6 mph WNW7.4 kmh WNW 5.8 mph9.3 kmh 29.91 in1012.9 mb - 0.00 in0.0 mm 0.00 in0.0 mm
07:00 PM 65.6°F18.7°C 45.9°F7.7°C 49% 4.6 mph NW7.4 kmh NW 5.8 mph9.3 kmh 29.94 in1013.9 mb - 0.00 in0.0 mm 0.00 in0.0 mm
07:10 PM 65.0°F18.3°C 46.4°F8.0°C 51% 2.3 mph NW3.7 kmh NW 5.8 mph9.3 kmh 29.94 in1013.9 mb - 0.00 in0.0 mm 0.00 in0.0 mm
07:20 PM 64.4°F18.0°C 45.9°F7.7°C 51% 5.8 mph NNW9.3 kmh NNW 8.1 mph13.0 kmh 29.94 in1013.9 mb - 0.00 in0.0 mm 0.00 in0.0 mm
07:30 PM 64.1°F17.8°C 46.1°F7.8°C 52% 3.5 mph NW5.6 kmh NW 3.5 mph5.6 kmh 29.94 in1013.9 mb - 0.00 in0.0 mm 0.00 in0.0 mm
07:40 PM 63.1°F17.3°C 46.2°F7.9°C 54% 4.6 mph NNW7.4 kmh NNW 5.8 mph9.3 kmh 29.94 in1013.9 mb - 0.00 in0.0 mm 0.00 in0.0 mm
07:50 PM 62.2°F16.8°C 46.7°F8.2°C 57% 3.5 mph WNW5.6 kmh WNW 3.5 mph5.6 kmh 29.94 in1013.9 mb - 0.00 in0.0 mm 0.00 in0.0 mm
08:00 PM 61.2°F16.2°C 46.7°F8.2°C 59% 3.5 mph W5.6 kmh W 3.5 mph5.6 kmh 29.94 in1013.9 mb - 0.00 in0.0 mm 0.00 in0.0 mm
08:10 PM 60.8°F16.0°C 46.8°F8.2°C 60% 3.5 mph NW5.6 kmh NW 3.5 mph5.6 kmh 29.94 in1013.9 mb - 0.00 in0.0 mm 0.00 in0.0 mm
08:20 PM 59.7°F15.4°C 47.0°F8.3°C 63% 2.3 mph N3.7 kmh N 4.6 mph7.4 kmh 29.94 in1013.9 mb - 0.00 in0.0 mm 0.00 in0.0 mm
08:30 PM 59.5°F15.3°C 46.9°F8.3°C 63% 2.3 mph N3.7 kmh N 3.5 mph5.6 kmh 29.94 in1013.9 mb - 0.00 in0.0 mm 0.00 in0.0 mm
08:40 PM 59.5°F15.3°C 46.9°F8.3°C 63% 1.2 mph N1.9 kmh N 3.5 mph5.6 kmh 29.94 in1013.9 mb - 0.00 in0.0 mm 0.00 in0.0 mm
08:50 PM 59.5°F15.3°C 46.9°F8.3°C 63% 2.3 mph NNW3.7 kmh NNW 3.5 mph5.6 kmh 29.94 in1013.9 mb - 0.00 in0.0 mm 0.00 in0.0 mm
09:00 PM 59.5°F15.3°C 46.9°F8.3°C 63% 1.2 mph N1.9 kmh N 3.5 mph5.6 kmh 29.94 in1013.9 mb - 0.00 in0.0 mm 0.00 in0.0 mm
09:10 PM 57.9°F14.4°C 47.4°F8.6°C 68% Calm Calm -- 29.94 in1013.9 mb - 0.00 in0.0 mm 0.00 in0.0 mm
09:20 PM 57.6°F14.2°C 47.5°F8.6°C 69% 3.5 mph S5.6 kmh S 4.6 mph7.4 kmh 29.97 in1014.9 mb - 0.00 in0.0 mm 0.00 in0.0 mm
09:30 PM 56.9°F13.8°C 47.2°F8.4°C 70% 2.3 mph SE3.7 kmh SE 3.5 mph5.6 kmh 29.97 in1014.9 mb - 0.00 in0.0 mm 0.00 in0.0 mm
09:40 PM 56.0°F13.3°C 46.7°F8.2°C 71% Calm Calm -- 29.97 in1014.9 mb - 0.00 in0.0 mm 0.00 in0.0 mm
09:50 PM 55.5°F13.1°C 46.9°F8.3°C 73% Calm Calm -- 29.97 in1014.9 mb - 0.00 in0.0 mm 0.00 in0.0 mm
10:00 PM 55.1°F12.8°C 47.0°F8.3°C 74% Calm Calm -- 29.97 in1014.9 mb - 0.00 in0.0 mm 0.00 in0.0 mm
10:10 PM 54.4°F12.4°C 47.4°F8.6°C 77% 1.2 mph SW1.9 kmh SW 3.5 mph5.6 kmh 29.97 in1014.9 mb - 0.00 in0.0 mm 0.00 in0.0 mm
10:20 PM 53.8°F12.1°C 47.4°F8.6°C 79% Calm Calm -- 29.97 in1014.9 mb - 0.00 in0.0 mm 0.00 in0.0 mm
10:40 PM 52.7°F11.5°C 47.3°F8.5°C 82% Calm Calm -- 29.97 in1014.9 mb - 0.00 in0.0 mm 0.00 in0.0 mm
10:50 PM 52.3°F11.3°C 47.0°F8.3°C 82% Calm Calm -- 29.97 in1014.9 mb - 0.00 in0.0 mm 0.00 in0.0 mm
11:00 PM 52.3°F11.3°C 47.0°F8.3°C 82% Calm Calm -- 29.97 in1014.9 mb - 0.00 in0.0 mm 0.00 in0.0 mm
11:10 PM 52.3°F11.3°C 47.0°F8.3°C 82% 1.2 mph S1.9 kmh S 5.8 mph9.3 kmh 29.97 in1014.9 mb - 0.00 in0.0 mm 0.00 in0.0 mm
11:20 PM 52.3°F11.3°C 47.0°F8.3°C 82% Calm Calm -- 29.97 in1014.9 mb - 0.00 in0.0 mm 0.00 in0.0 mm
11:30 PM 52.3°F11.3°C 47.0°F8.3°C 82% Calm Calm -- 30.00 in1015.9 mb - 0.00 in0.0 mm 0.00 in0.0 mm
11:40 PM 52.3°F11.3°C 47.0°F8.3°C 82% Calm Calm -- 30.00 in1015.9 mb - 0.00 in0.0 mm 0.00 in0.0 mm
11:50 PM 52.3°F11.3°C 47.0°F8.3°C 82% Calm Calm -- 30.00 in1015.9 mb - 0.00 in0.0 mm 0.00 in0.0 mm